sensor_id;sensor_type;location;lat;lon;timestamp;P1;durP1;ratioP1;P2;durP2;ratioP2
46334;SDS011;32051;48.882;9.210;2024-03-23T00:53:58;7.72;;;6.10;;
46334;SDS011;32051;48.882;9.210;2024-03-23T00:56:24;13.98;;;6.20;;
46334;SDS011;32051;48.882;9.210;2024-03-23T00:58:50;7.78;;;6.05;;
46334;SDS011;32051;48.882;9.210;2024-03-23T01:01:16;14.40;;;7.03;;
46334;SDS011;32051;48.882;9.210;2024-03-23T01:03:42;11.43;;;5.55;;
46334;SDS011;32051;48.882;9.210;2024-03-23T01:06:08;5.65;;;5.22;;
46334;SDS011;32051;48.882;9.210;2024-03-23T01:08:34;25.35;;;6.65;;
46334;SDS011;32051;48.882;9.210;2024-03-23T01:11:00;5.40;;;4.90;;
46334;SDS011;32051;48.882;9.210;2024-03-23T01:13:27;14.80;;;5.93;;
46334;SDS011;32051;48.882;9.210;2024-03-23T01:15:54;14.43;;;5.50;;
46334;SDS011;32051;48.882;9.210;2024-03-23T01:18:21;8.65;;;4.80;;
46334;SDS011;32051;48.882;9.210;2024-03-23T01:20:47;5.35;;;4.78;;
46334;SDS011;32051;48.882;9.210;2024-03-23T01:23:13;6.97;;;5.57;;
46334;SDS011;32051;48.882;9.210;2024-03-23T01:25:39;14.57;;;6.90;;
46334;SDS011;32051;48.882;9.210;2024-03-23T01:28:06;6.70;;;5.22;;
46334;SDS011;32051;48.882;9.210;2024-03-23T01:30:33;8.05;;;5.72;;
46334;SDS011;32051;48.882;9.210;2024-03-23T01:32:59;9.48;;;4.68;;
46334;SDS011;32051;48.882;9.210;2024-03-23T01:35:25;10.55;;;4.95;;
46334;SDS011;32051;48.882;9.210;2024-03-23T01:37:51;11.07;;;5.25;;
46334;SDS011;32051;48.882;9.210;2024-03-23T01:40:17;7.55;;;4.82;;
46334;SDS011;32051;48.882;9.210;2024-03-23T01:43:02;6.22;;;5.43;;
46334;SDS011;32051;48.882;9.210;2024-03-23T01:45:30;8.90;;;5.03;;
46334;SDS011;32051;48.882;9.210;2024-03-23T01:47:56;20.17;;;5.18;;
46334;SDS011;32051;48.882;9.210;2024-03-23T01:50:22;15.73;;;6.03;;
46334;SDS011;32051;48.882;9.210;2024-03-23T01:52:51;10.45;;;5.75;;
46334;SDS011;32051;48.882;9.210;2024-03-23T01:55:17;7.85;;;4.80;;
46334;SDS011;32051;48.882;9.210;2024-03-23T01:57:44;9.38;;;5.43;;
46334;SDS011;32051;48.882;9.210;2024-03-23T02:00:10;11.60;;;4.47;;
46334;SDS011;32051;48.882;9.210;2024-03-23T02:02:43;10.23;;;5.00;;
46334;SDS011;32051;48.882;9.210;2024-03-23T02:05:10;9.30;;;3.92;;
46334;SDS011;32051;48.882;9.210;2024-03-23T02:07:37;4.45;;;3.90;;
46334;SDS011;32051;48.882;9.210;2024-03-23T02:10:03;4.95;;;4.38;;
46334;SDS011;32051;48.882;9.210;2024-03-23T02:12:29;7.15;;;3.88;;
46334;SDS011;32051;48.882;9.210;2024-03-23T02:14:55;16.95;;;4.25;;
46334;SDS011;32051;48.882;9.210;2024-03-23T02:17:21;3.97;;;2.67;;
46334;SDS011;32051;48.882;9.210;2024-03-23T02:19:47;3.25;;;2.15;;
46334;SDS011;32051;48.882;9.210;2024-03-23T02:22:13;7.07;;;2.40;;
46334;SDS011;32051;48.882;9.210;2024-03-23T02:24:41;3.28;;;2.55;;
46334;SDS011;32051;48.882;9.210;2024-03-23T02:27:07;7.72;;;1.92;;
46334;SDS011;32051;48.882;9.210;2024-03-23T02:29:33;6.22;;;2.33;;
46334;SDS011;32051;48.882;9.210;2024-03-23T02:31:59;1.58;;;1.48;;
46334;SDS011;32051;48.882;9.210;2024-03-23T02:34:25;2.25;;;1.95;;
46334;SDS011;32051;48.882;9.210;2024-03-23T02:36:51;1.90;;;1.35;;
46334;SDS011;32051;48.882;9.210;2024-03-23T02:39:17;3.00;;;1.80;;
46334;SDS011;32051;48.882;9.210;2024-03-23T02:41:43;2.55;;;1.42;;
46334;SDS011;32051;48.882;9.210;2024-03-23T02:44:09;2.35;;;1.38;;
46334;SDS011;32051;48.882;9.210;2024-03-23T02:46:37;2.97;;;1.65;;
46334;SDS011;32051;48.882;9.210;2024-03-23T02:49:03;2.10;;;1.27;;
46334;SDS011;32051;48.882;9.210;2024-03-23T02:51:30;3.30;;;1.48;;
46334;SDS011;32051;48.882;9.210;2024-03-23T02:53:56;1.40;;;1.33;;
46334;SDS011;32051;48.882;9.210;2024-03-23T02:56:22;2.33;;;1.50;;
46334;SDS011;32051;48.882;9.210;2024-03-23T02:58:48;5.28;;;1.48;;
46334;SDS011;32051;48.882;9.210;2024-03-23T03:01:14;2.92;;;1.20;;
46334;SDS011;32051;48.882;9.210;2024-03-23T03:03:40;1.73;;;1.63;;
46334;SDS011;32051;48.882;9.210;2024-03-23T03:06:06;2.10;;;1.90;;
46334;SDS011;32051;48.882;9.210;2024-03-23T03:08:32;3.75;;;1.70;;
46334;SDS011;32051;48.882;9.210;2024-03-23T03:10:58;4.40;;;1.27;;
46334;SDS011;32051;48.882;9.210;2024-03-23T03:13:24;2.65;;;2.17;;
46334;SDS011;32051;48.882;9.210;2024-03-23T03:15:50;1.50;;;1.40;;
46334;SDS011;32051;48.882;9.210;2024-03-23T03:18:18;8.50;;;1.65;;
46334;SDS011;32051;48.882;9.210;2024-03-23T03:20:44;6.47;;;1.60;;
46334;SDS011;32051;48.882;9.210;2024-03-23T03:23:10;1.48;;;1.38;;
46334;SDS011;32051;48.882;9.210;2024-03-23T03:25:36;6.38;;;1.77;;
46334;SDS011;32051;48.882;9.210;2024-03-23T03:28:03;1.20;;;1.13;;
46334;SDS011;32051;48.882;9.210;2024-03-23T03:30:29;4.70;;;1.63;;
46334;SDS011;32051;48.882;9.210;2024-03-23T03:32:55;1.92;;;1.33;;
46334;SDS011;32051;48.882;9.210;2024-03-23T03:35:21;2.33;;;1.63;;
46334;SDS011;32051;48.882;9.210;2024-03-23T03:37:47;1.10;;;1.10;;
46334;SDS011;32051;48.882;9.210;2024-03-23T03:40:13;3.83;;;1.42;;
46334;SDS011;32051;48.882;9.210;2024-03-23T03:42:42;2.00;;;1.80;;
46334;SDS011;32051;48.882;9.210;2024-03-23T03:45:09;4.10;;;1.88;;
46334;SDS011;32051;48.882;9.210;2024-03-23T03:47:35;1.67;;;1.58;;
46334;SDS011;32051;48.882;9.210;2024-03-23T03:50:01;6.55;;;1.58;;
46334;SDS011;32051;48.882;9.210;2024-03-23T03:52:27;2.35;;;1.88;;
46334;SDS011;32051;48.882;9.210;2024-03-23T03:54:55;2.00;;;1.90;;
46334;SDS011;32051;48.882;9.210;2024-03-23T03:57:21;1.55;;;1.45;;
46334;SDS011;32051;48.882;9.210;2024-03-23T03:59:47;6.78;;;1.65;;
46334;SDS011;32051;48.882;9.210;2024-03-23T04:02:13;2.65;;;2.00;;
46334;SDS011;32051;48.882;9.210;2024-03-23T04:04:39;1.88;;;1.77;;
46334;SDS011;32051;48.882;9.210;2024-03-23T04:07:06;5.25;;;2.10;;
46334;SDS011;32051;48.882;9.210;2024-03-23T04:09:32;1.80;;;1.70;;
46334;SDS011;32051;48.882;9.210;2024-03-23T04:11:58;2.53;;;2.20;;
46334;SDS011;32051;48.882;9.210;2024-03-23T04:14:24;2.75;;;1.60;;
46334;SDS011;32051;48.882;9.210;2024-03-23T04:16:50;1.95;;;1.52;;
46334;SDS011;32051;48.882;9.210;2024-03-23T04:19:16;1.75;;;1.48;;
46334;SDS011;32051;48.882;9.210;2024-03-23T04:21:42;3.53;;;2.13;;
46334;SDS011;32051;48.882;9.210;2024-03-23T04:24:08;4.80;;;1.70;;
46334;SDS011;32051;48.882;9.210;2024-03-23T04:26:40;5.00;;;1.52;;
46334;SDS011;32051;48.882;9.210;2024-03-23T04:29:07;1.40;;;1.33;;
46334;SDS011;32051;48.882;9.210;2024-03-23T04:31:33;5.72;;;2.35;;
46334;SDS011;32051;48.882;9.210;2024-03-23T04:34:03;6.32;;;2.67;;
46334;SDS011;32051;48.882;9.210;2024-03-23T04:36:29;5.43;;;3.45;;
46334;SDS011;32051;48.882;9.210;2024-03-23T04:38:59;3.72;;;3.42;;
46334;SDS011;32051;48.882;9.210;2024-03-23T04:41:25;6.07;;;4.50;;
46334;SDS011;32051;48.882;9.210;2024-03-23T04:43:52;5.75;;;5.25;;
46334;SDS011;32051;48.882;9.210;2024-03-23T04:46:18;7.13;;;6.43;;
46334;SDS011;32051;48.882;9.210;2024-03-23T04:48:45;11.60;;;7.63;;
46334;SDS011;32051;48.882;9.210;2024-03-23T04:51:19;11.00;;;8.00;;
46334;SDS011;32051;48.882;9.210;2024-03-23T04:53:46;11.88;;;8.45;;
46334;SDS011;32051;48.882;9.210;2024-03-23T04:56:13;10.43;;;8.82;;
46334;SDS011;32051;48.882;9.210;2024-03-23T04:58:39;9.07;;;8.27;;
46334;SDS011;32051;48.882;9.210;2024-03-23T05:01:05;14.43;;;10.07;;
46334;SDS011;32051;48.882;9.210;2024-03-23T05:03:31;13.88;;;9.35;;
46334;SDS011;32051;48.882;9.210;2024-03-23T05:05:57;11.90;;;10.48;;
46334;SDS011;32051;48.882;9.210;2024-03-23T05:08:23;16.55;;;10.65;;
46334;SDS011;32051;48.882;9.210;2024-03-23T05:10:49;10.23;;;8.45;;
46334;SDS011;32051;48.882;9.210;2024-03-23T05:13:15;10.60;;;9.55;;
46334;SDS011;32051;48.882;9.210;2024-03-23T05:15:41;11.45;;;10.25;;
46334;SDS011;32051;48.882;9.210;2024-03-23T05:18:08;13.57;;;9.70;;
46334;SDS011;32051;48.882;9.210;2024-03-23T05:20:34;12.95;;;10.15;;
46334;SDS011;32051;48.882;9.210;2024-03-23T05:23:00;16.70;;;9.73;;
46334;SDS011;32051;48.882;9.210;2024-03-23T05:25:26;10.90;;;9.10;;
46334;SDS011;32051;48.882;9.210;2024-03-23T05:27:52;11.05;;;8.52;;
46334;SDS011;32051;48.882;9.210;2024-03-23T05:30:18;13.07;;;8.95;;
46334;SDS011;32051;48.882;9.210;2024-03-23T05:32:44;10.77;;;8.52;;
46334;SDS011;32051;48.882;9.210;2024-03-23T05:35:10;16.73;;;8.23;;
46334;SDS011;32051;48.882;9.210;2024-03-23T05:37:36;8.57;;;7.78;;
46334;SDS011;32051;48.882;9.210;2024-03-23T05:40:03;7.88;;;7.07;;
46334;SDS011;32051;48.882;9.210;2024-03-23T05:42:29;8.65;;;7.80;;
46334;SDS011;32051;48.882;9.210;2024-03-23T05:44:55;7.47;;;6.68;;
46334;SDS011;32051;48.882;9.210;2024-03-23T05:47:21;7.03;;;6.35;;
46334;SDS011;32051;48.882;9.210;2024-03-23T05:49:48;12.63;;;6.40;;
46334;SDS011;32051;48.882;9.210;2024-03-23T05:52:14;7.53;;;6.75;;
46334;SDS011;32051;48.882;9.210;2024-03-23T05:54:40;6.53;;;5.30;;
46334;SDS011;32051;48.882;9.210;2024-03-23T05:57:09;5.32;;;4.80;;
46334;SDS011;32051;48.882;9.210;2024-03-23T05:59:37;6.07;;;4.38;;
46334;SDS011;32051;48.882;9.210;2024-03-23T06:02:03;4.95;;;3.72;;
46334;SDS011;32051;48.882;9.210;2024-03-23T06:04:29;4.15;;;3.75;;
46334;SDS011;32051;48.882;9.210;2024-03-23T06:06:55;4.72;;;4.13;;
46334;SDS011;32051;48.882;9.210;2024-03-23T06:09:22;4.32;;;3.97;;
46334;SDS011;32051;48.882;9.210;2024-03-23T06:11:49;4.45;;;4.10;;
46334;SDS011;32051;48.882;9.210;2024-03-23T06:14:15;5.22;;;4.72;;
46334;SDS011;32051;48.882;9.210;2024-03-23T06:16:41;13.18;;;3.85;;
46334;SDS011;32051;48.882;9.210;2024-03-23T06:19:07;4.97;;;4.20;;
46334;SDS011;32051;48.882;9.210;2024-03-23T06:21:33;5.20;;;4.55;;
46334;SDS011;32051;48.882;9.210;2024-03-23T06:23:59;5.03;;;4.63;;
46334;SDS011;32051;48.882;9.210;2024-03-23T06:26:25;4.85;;;3.58;;
46334;SDS011;32051;48.882;9.210;2024-03-23T06:28:51;4.07;;;3.78;;
46334;SDS011;32051;48.882;9.210;2024-03-23T06:31:17;3.88;;;3.58;;
46334;SDS011;32051;48.882;9.210;2024-03-23T06:33:43;3.97;;;2.92;;
46334;SDS011;32051;48.882;9.210;2024-03-23T06:36:10;2.80;;;2.60;;
46334;SDS011;32051;48.882;9.210;2024-03-23T06:38:36;2.10;;;1.90;;
46334;SDS011;32051;48.882;9.210;2024-03-23T06:41:03;2.08;;;1.98;;
46334;SDS011;32051;48.882;9.210;2024-03-23T06:43:29;2.10;;;1.95;;
46334;SDS011;32051;48.882;9.210;2024-03-23T06:45:55;1.80;;;1.70;;
46334;SDS011;32051;48.882;9.210;2024-03-23T06:48:22;1.85;;;1.75;;
46334;SDS011;32051;48.882;9.210;2024-03-23T06:50:48;1.48;;;1.38;;
46334;SDS011;32051;48.882;9.210;2024-03-23T06:53:14;1.60;;;1.50;;
46334;SDS011;32051;48.882;9.210;2024-03-23T06:55:40;1.23;;;1.13;;
46334;SDS011;32051;48.882;9.210;2024-03-23T06:58:07;0.80;;;0.80;;
46334;SDS011;32051;48.882;9.210;2024-03-23T07:00:33;1.00;;;0.90;;
46334;SDS011;32051;48.882;9.210;2024-03-23T07:02:59;0.68;;;0.68;;
46334;SDS011;32051;48.882;9.210;2024-03-23T07:05:25;0.73;;;0.73;;
46334;SDS011;32051;48.882;9.210;2024-03-23T07:07:51;0.47;;;0.40;;
46334;SDS011;32051;48.882;9.210;2024-03-23T07:10:17;0.55;;;0.43;;
46334;SDS011;32051;48.882;9.210;2024-03-23T07:12:43;0.40;;;0.40;;
46334;SDS011;32051;48.882;9.210;2024-03-23T07:15:09;0.45;;;0.45;;
46334;SDS011;32051;48.882;9.210;2024-03-23T07:17:36;0.50;;;0.50;;
46334;SDS011;32051;48.882;9.210;2024-03-23T07:20:02;0.63;;;0.60;;
46334;SDS011;32051;48.882;9.210;2024-03-23T07:22:29;0.80;;;0.57;;
46334;SDS011;32051;48.882;9.210;2024-03-23T07:24:56;0.50;;;0.50;;
46334;SDS011;32051;48.882;9.210;2024-03-23T07:27:22;0.40;;;0.40;;
46334;SDS011;32051;48.882;9.210;2024-03-23T07:29:49;0.40;;;0.40;;
46334;SDS011;32051;48.882;9.210;2024-03-23T07:32:15;1.27;;;0.52;;
46334;SDS011;32051;48.882;9.210;2024-03-23T07:34:41;0.43;;;0.43;;
46334;SDS011;32051;48.882;9.210;2024-03-23T07:37:09;0.30;;;0.30;;
46334;SDS011;32051;48.882;9.210;2024-03-23T07:39:35;0.35;;;0.35;;
46334;SDS011;32051;48.882;9.210;2024-03-23T07:42:01;0.38;;;0.38;;
46334;SDS011;32051;48.882;9.210;2024-03-23T07:44:28;0.35;;;0.35;;
46334;SDS011;32051;48.882;9.210;2024-03-23T07:46:54;0.50;;;0.50;;
46334;SDS011;32051;48.882;9.210;2024-03-23T07:49:20;3.72;;;0.65;;
46334;SDS011;32051;48.882;9.210;2024-03-23T07:51:46;1.92;;;0.70;;
46334;SDS011;32051;48.882;9.210;2024-03-23T07:54:12;0.40;;;0.40;;
46334;SDS011;32051;48.882;9.210;2024-03-23T07:56:38;0.70;;;0.55;;
46334;SDS011;32051;48.882;9.210;2024-03-23T07:59:04;0.60;;;0.60;;
46334;SDS011;32051;48.882;9.210;2024-03-23T08:01:30;3.25;;;0.70;;
46334;SDS011;32051;48.882;9.210;2024-03-23T08:03:56;0.40;;;0.40;;
46334;SDS011;32051;48.882;9.210;2024-03-23T08:06:22;0.57;;;0.57;;
46334;SDS011;32051;48.882;9.210;2024-03-23T08:08:49;0.55;;;0.50;;
46334;SDS011;32051;48.882;9.210;2024-03-23T08:11:16;3.13;;;0.60;;
46334;SDS011;32051;48.882;9.210;2024-03-23T08:13:44;0.40;;;0.40;;
46334;SDS011;32051;48.882;9.210;2024-03-23T08:16:10;0.38;;;0.38;;
46334;SDS011;32051;48.882;9.210;2024-03-23T08:18:39;0.30;;;0.30;;
46334;SDS011;32051;48.882;9.210;2024-03-23T08:21:05;0.30;;;0.28;;
46334;SDS011;32051;48.882;9.210;2024-03-23T08:23:32;0.38;;;0.38;;
46334;SDS011;32051;48.882;9.210;2024-03-23T08:26:05;0.32;;;0.28;;
46334;SDS011;32051;48.882;9.210;2024-03-23T08:28:32;0.20;;;0.20;;
46334;SDS011;32051;48.882;9.210;2024-03-23T08:31:00;0.30;;;0.30;;
46334;SDS011;32051;48.882;9.210;2024-03-23T08:33:27;0.38;;;0.30;;
46334;SDS011;32051;48.882;9.210;2024-03-23T08:35:56;0.47;;;0.47;;
46334;SDS011;32051;48.882;9.210;2024-03-23T08:38:23;1.23;;;0.30;;
46334;SDS011;32051;48.882;9.210;2024-03-23T08:41:02;0.28;;;0.28;;
46334;SDS011;32051;48.882;9.210;2024-03-23T08:43:28;0.57;;;0.57;;
46334;SDS011;32051;48.882;9.210;2024-03-23T08:46:02;1.42;;;0.50;;
46334;SDS011;32051;48.882;9.210;2024-03-23T08:48:29;3.70;;;0.90;;
46334;SDS011;32051;48.882;9.210;2024-03-23T08:51:02;2.20;;;0.93;;
46334;SDS011;32051;48.882;9.210;2024-03-23T08:53:28;0.65;;;0.57;;
46334;SDS011;32051;48.882;9.210;2024-03-23T08:55:56;0.77;;;0.75;;
46334;SDS011;32051;48.882;9.210;2024-03-23T08:58:25;0.77;;;0.65;;
46334;SDS011;32051;48.882;9.210;2024-03-23T09:00:52;1.20;;;1.13;;
46334;SDS011;32051;48.882;9.210;2024-03-23T09:03:18;1.33;;;0.70;;
46334;SDS011;32051;48.882;9.210;2024-03-23T09:05:44;0.95;;;0.95;;
46334;SDS011;32051;48.882;9.210;2024-03-23T09:08:10;0.77;;;0.65;;
46334;SDS011;32051;48.882;9.210;2024-03-23T09:10:40;2.22;;;0.80;;
46334;SDS011;32051;48.882;9.210;2024-03-23T09:13:06;2.80;;;1.38;;
46334;SDS011;32051;48.882;9.210;2024-03-23T09:15:33;1.50;;;0.93;;
46334;SDS011;32051;48.882;9.210;2024-03-23T09:18:00;1.00;;;0.82;;
46334;SDS011;32051;48.882;9.210;2024-03-23T09:20:26;3.17;;;1.40;;
46334;SDS011;32051;48.882;9.210;2024-03-23T09:22:52;2.60;;;1.38;;
46334;SDS011;32051;48.882;9.210;2024-03-23T09:25:18;4.13;;;1.77;;
46334;SDS011;32051;48.882;9.210;2024-03-23T09:27:47;4.40;;;1.90;;
46334;SDS011;32051;48.882;9.210;2024-03-23T09:30:13;2.00;;;1.70;;
46334;SDS011;32051;48.882;9.210;2024-03-23T09:32:43;2.60;;;1.65;;
46334;SDS011;32051;48.882;9.210;2024-03-23T09:35:10;8.30;;;1.92;;
46334;SDS011;32051;48.882;9.210;2024-03-23T09:37:36;3.28;;;1.77;;
46334;SDS011;32051;48.882;9.210;2024-03-23T09:40:04;2.72;;;2.22;;
46334;SDS011;32051;48.882;9.210;2024-03-23T09:42:30;2.67;;;1.88;;
46334;SDS011;32051;48.882;9.210;2024-03-23T09:44:57;3.17;;;1.88;;
46334;SDS011;32051;48.882;9.210;2024-03-23T09:47:24;9.27;;;2.13;;
46334;SDS011;32051;48.882;9.210;2024-03-23T09:49:50;5.18;;;2.13;;
46334;SDS011;32051;48.882;9.210;2024-03-23T09:52:16;4.88;;;1.85;;
46334;SDS011;32051;48.882;9.210;2024-03-23T09:54:42;4.93;;;2.10;;
46334;SDS011;32051;48.882;9.210;2024-03-23T09:57:08;4.72;;;2.45;;
46334;SDS011;32051;48.882;9.210;2024-03-23T09:59:34;8.98;;;2.17;;
46334;SDS011;32051;48.882;9.210;2024-03-23T10:02:03;8.05;;;1.80;;
46334;SDS011;32051;48.882;9.210;2024-03-23T10:04:37;6.32;;;2.63;;
46334;SDS011;32051;48.882;9.210;2024-03-23T10:07:12;5.47;;;2.30;;
46334;SDS011;32051;48.882;9.210;2024-03-23T10:09:39;4.32;;;2.03;;
46334;SDS011;32051;48.882;9.210;2024-03-23T10:12:11;6.63;;;1.85;;
46334;SDS011;32051;48.882;9.210;2024-03-23T10:14:42;4.88;;;1.90;;
46334;SDS011;32051;48.882;9.210;2024-03-23T10:17:12;6.53;;;1.75;;
46334;SDS011;32051;48.882;9.210;2024-03-23T10:19:44;7.00;;;1.85;;
46334;SDS011;32051;48.882;9.210;2024-03-23T10:22:14;4.93;;;2.80;;
46334;SDS011;32051;48.882;9.210;2024-03-23T10:24:41;4.93;;;2.05;;
46334;SDS011;32051;48.882;9.210;2024-03-23T10:27:07;2.78;;;1.92;;
46334;SDS011;32051;48.882;9.210;2024-03-23T10:29:34;6.00;;;2.25;;
46334;SDS011;32051;48.882;9.210;2024-03-23T10:32:08;6.15;;;1.65;;
46334;SDS011;32051;48.882;9.210;2024-03-23T10:34:34;11.23;;;2.00;;
46334;SDS011;32051;48.882;9.210;2024-03-23T10:37:01;9.18;;;2.40;;
46334;SDS011;32051;48.882;9.210;2024-03-23T10:39:29;8.90;;;2.33;;
46334;SDS011;32051;48.882;9.210;2024-03-23T10:41:56;2.92;;;2.17;;
46334;SDS011;32051;48.882;9.210;2024-03-23T10:44:23;4.70;;;2.55;;
46334;SDS011;32051;48.882;9.210;2024-03-23T10:46:51;3.50;;;2.53;;
46334;SDS011;32051;48.882;9.210;2024-03-23T10:49:24;6.43;;;2.17;;
46334;SDS011;32051;48.882;9.210;2024-03-23T10:51:51;3.65;;;2.78;;
46334;SDS011;32051;48.882;9.210;2024-03-23T10:54:17;5.30;;;2.80;;
46334;SDS011;32051;48.882;9.210;2024-03-23T10:56:44;4.78;;;2.60;;
46334;SDS011;32051;48.882;9.210;2024-03-23T10:59:10;7.47;;;3.08;;
46334;SDS011;32051;48.882;9.210;2024-03-23T11:01:53;7.00;;;2.90;;
46334;SDS011;32051;48.882;9.210;2024-03-23T11:06:57;9.07;;;3.22;;
46334;SDS011;32051;48.882;9.210;2024-03-23T11:15:00;9.15;;;3.05;;
46334;SDS011;32051;48.882;9.210;2024-03-23T11:17:31;5.97;;;3.08;;
46334;SDS011;32051;48.882;9.210;2024-03-23T11:20:01;8.15;;;3.78;;
46334;SDS011;32051;48.882;9.210;2024-03-23T11:23:01;4.25;;;3.42;;
46334;SDS011;32051;48.882;9.210;2024-03-23T11:25:21;4.07;;;2.70;;
46334;SDS011;32051;48.882;9.210;2024-03-23T11:27:51;4.68;;;2.38;;
46334;SDS011;32051;48.882;9.210;2024-03-23T11:30:24;4.20;;;2.10;;
46334;SDS011;32051;48.882;9.210;2024-03-23T11:32:51;3.47;;;1.73;;
46334;SDS011;32051;48.882;9.210;2024-03-23T11:38:07;6.68;;;2.13;;
46334;SDS011;32051;48.882;9.210;2024-03-23T11:40:35;5.18;;;2.55;;
46334;SDS011;32051;48.882;9.210;2024-03-23T11:43:02;3.20;;;2.10;;
46334;SDS011;32051;48.882;9.210;2024-03-23T11:45:28;2.58;;;2.22;;
46334;SDS011;32051;48.882;9.210;2024-03-23T11:48:04;6.55;;;2.25;;
46334;SDS011;32051;48.882;9.210;2024-03-23T11:50:31;7.70;;;2.28;;
46334;SDS011;32051;48.882;9.210;2024-03-23T11:53:06;2.80;;;2.03;;
46334;SDS011;32051;48.882;9.210;2024-03-23T11:55:42;5.28;;;1.60;;
46334;SDS011;32051;48.882;9.210;2024-03-23T11:58:08;1.77;;;1.60;;
46334;SDS011;32051;48.882;9.210;2024-03-23T12:00:34;2.38;;;1.40;;
46334;SDS011;32051;48.882;9.210;2024-03-23T12:03:04;2.03;;;1.70;;
46334;SDS011;32051;48.882;9.210;2024-03-23T12:05:31;2.65;;;1.92;;
46334;SDS011;32051;48.882;9.210;2024-03-23T12:10:52;2.25;;;1.67;;
46334;SDS011;32051;48.882;9.210;2024-03-23T12:13:19;8.85;;;1.50;;
46334;SDS011;32051;48.882;9.210;2024-03-23T12:15:46;2.03;;;1.15;;
46334;SDS011;32051;48.882;9.210;2024-03-23T12:18:12;1.25;;;1.15;;
46334;SDS011;32051;48.882;9.210;2024-03-23T12:20:39;6.80;;;1.80;;
46334;SDS011;32051;48.882;9.210;2024-03-23T12:23:08;6.07;;;1.35;;
46334;SDS011;32051;48.882;9.210;2024-03-23T12:25:36;4.53;;;1.48;;
46334;SDS011;32051;48.882;9.210;2024-03-23T12:28:02;4.32;;;1.60;;
46334;SDS011;32051;48.882;9.210;2024-03-23T12:30:28;5.75;;;1.83;;
46334;SDS011;32051;48.882;9.210;2024-03-23T12:32:54;2.38;;;1.40;;
46334;SDS011;32051;48.882;9.210;2024-03-23T12:35:20;5.82;;;2.47;;
46334;SDS011;32051;48.882;9.210;2024-03-23T12:37:46;4.10;;;1.55;;
46334;SDS011;32051;48.882;9.210;2024-03-23T12:40:12;5.30;;;1.60;;
46334;SDS011;32051;48.882;9.210;2024-03-23T12:42:38;6.03;;;1.60;;
46334;SDS011;32051;48.882;9.210;2024-03-23T12:45:04;11.32;;;2.45;;
46334;SDS011;32051;48.882;9.210;2024-03-23T12:47:31;2.88;;;1.70;;
46334;SDS011;32051;48.882;9.210;2024-03-23T12:49:57;3.88;;;1.92;;
46334;SDS011;32051;48.882;9.210;2024-03-23T12:52:23;6.93;;;2.83;;
46334;SDS011;32051;48.882;9.210;2024-03-23T12:54:53;8.02;;;2.00;;
46334;SDS011;32051;48.882;9.210;2024-03-23T12:57:21;2.70;;;1.50;;
46334;SDS011;32051;48.882;9.210;2024-03-23T12:59:47;6.82;;;1.50;;
46334;SDS011;32051;48.882;9.210;2024-03-23T13:02:17;4.97;;;2.17;;
46334;SDS011;32051;48.882;9.210;2024-03-23T13:04:43;4.68;;;1.77;;
46334;SDS011;32051;48.882;9.210;2024-03-23T13:07:10;5.90;;;1.88;;
46334;SDS011;32051;48.882;9.210;2024-03-23T13:09:35;5.85;;;1.60;;
46334;SDS011;32051;48.882;9.210;2024-03-23T13:12:01;5.40;;;1.60;;
46334;SDS011;32051;48.882;9.210;2024-03-23T13:14:27;5.45;;;1.70;;
46334;SDS011;32051;48.882;9.210;2024-03-23T13:16:53;7.30;;;1.90;;
46334;SDS011;32051;48.882;9.210;2024-03-23T13:19:19;5.93;;;1.50;;
46334;SDS011;32051;48.882;9.210;2024-03-23T13:21:46;5.45;;;2.15;;
46334;SDS011;32051;48.882;9.210;2024-03-23T13:24:12;4.00;;;1.83;;
46334;SDS011;32051;48.882;9.210;2024-03-23T13:26:37;3.35;;;2.45;;
46334;SDS011;32051;48.882;9.210;2024-03-23T13:29:03;3.90;;;1.00;;
46334;SDS011;32051;48.882;9.210;2024-03-23T13:31:29;3.60;;;0.98;;
46334;SDS011;32051;48.882;9.210;2024-03-23T13:33:55;2.13;;;1.50;;
46334;SDS011;32051;48.882;9.210;2024-03-23T13:36:21;4.78;;;1.30;;
46334;SDS011;32051;48.882;9.210;2024-03-23T13:38:47;8.05;;;1.67;;
46334;SDS011;32051;48.882;9.210;2024-03-23T13:41:13;3.80;;;2.15;;
46334;SDS011;32051;48.882;9.210;2024-03-23T13:43:39;7.75;;;1.52;;
46334;SDS011;32051;48.882;9.210;2024-03-23T13:46:06;5.25;;;1.50;;
46334;SDS011;32051;48.882;9.210;2024-03-23T13:48:31;2.97;;;1.50;;
46334;SDS011;32051;48.882;9.210;2024-03-23T13:51:00;6.20;;;1.98;;
46334;SDS011;32051;48.882;9.210;2024-03-23T13:53:30;7.05;;;2.13;;
46334;SDS011;32051;48.882;9.210;2024-03-23T13:55:57;4.43;;;1.00;;
46334;SDS011;32051;48.882;9.210;2024-03-23T13:58:23;2.10;;;0.98;;
46334;SDS011;32051;48.882;9.210;2024-03-23T14:00:50;2.60;;;0.90;;
46334;SDS011;32051;48.882;9.210;2024-03-23T14:03:17;2.70;;;1.00;;
46334;SDS011;32051;48.882;9.210;2024-03-23T14:05:43;3.15;;;0.93;;
46334;SDS011;32051;48.882;9.210;2024-03-23T14:08:10;6.03;;;1.00;;
46334;SDS011;32051;48.882;9.210;2024-03-23T14:10:39;3.70;;;0.85;;
46334;SDS011;32051;48.882;9.210;2024-03-23T14:13:06;2.63;;;1.10;;
46334;SDS011;32051;48.882;9.210;2024-03-23T14:15:32;7.88;;;1.33;;
46334;SDS011;32051;48.882;9.210;2024-03-23T14:17:58;1.40;;;1.25;;
46334;SDS011;32051;48.882;9.210;2024-03-23T14:20:25;3.28;;;1.50;;
46334;SDS011;32051;48.882;9.210;2024-03-23T14:22:51;1.63;;;0.77;;
46334;SDS011;32051;48.882;9.210;2024-03-23T14:25:17;7.68;;;1.48;;
46334;SDS011;32051;48.882;9.210;2024-03-23T14:27:44;3.17;;;1.38;;
46334;SDS011;32051;48.882;9.210;2024-03-23T14:30:10;5.45;;;1.40;;
46334;SDS011;32051;48.882;9.210;2024-03-23T14:32:37;2.95;;;0.98;;
46334;SDS011;32051;48.882;9.210;2024-03-23T14:35:03;3.03;;;0.73;;
46334;SDS011;32051;48.882;9.210;2024-03-23T14:37:30;2.03;;;0.98;;
46334;SDS011;32051;48.882;9.210;2024-03-23T14:39:56;2.08;;;1.33;;
46334;SDS011;32051;48.882;9.210;2024-03-23T14:42:22;6.68;;;2.67;;
46334;SDS011;32051;48.882;9.210;2024-03-23T14:44:51;1.67;;;1.05;;
46334;SDS011;32051;48.882;9.210;2024-03-23T14:47:18;3.03;;;1.55;;
46334;SDS011;32051;48.882;9.210;2024-03-23T14:49:45;2.38;;;0.80;;
46334;SDS011;32051;48.882;9.210;2024-03-23T14:52:14;10.55;;;2.45;;
46334;SDS011;32051;48.882;9.210;2024-03-23T14:54:41;1.35;;;1.25;;
46334;SDS011;32051;48.882;9.210;2024-03-23T14:57:07;3.25;;;1.08;;
46334;SDS011;32051;48.882;9.210;2024-03-23T14:59:35;1.08;;;0.85;;
46334;SDS011;32051;48.882;9.210;2024-03-23T15:02:03;3.40;;;0.80;;
46334;SDS011;32051;48.882;9.210;2024-03-23T15:04:29;8.38;;;1.25;;
46334;SDS011;32051;48.882;9.210;2024-03-23T15:06:55;2.58;;;1.02;;
46334;SDS011;32051;48.882;9.210;2024-03-23T15:09:21;10.70;;;2.28;;
46334;SDS011;32051;48.882;9.210;2024-03-23T15:11:47;0.50;;;0.50;;
46334;SDS011;32051;48.882;9.210;2024-03-23T15:14:13;1.45;;;0.70;;
46334;SDS011;32051;48.882;9.210;2024-03-23T15:16:39;0.88;;;0.65;;
46334;SDS011;32051;48.882;9.210;2024-03-23T15:19:07;0.85;;;0.70;;
46334;SDS011;32051;48.882;9.210;2024-03-23T15:21:33;0.68;;;0.68;;
46334;SDS011;32051;48.882;9.210;2024-03-23T15:23:59;2.72;;;0.95;;
46334;SDS011;32051;48.882;9.210;2024-03-23T15:26:26;1.50;;;0.60;;
46334;SDS011;32051;48.882;9.210;2024-03-23T15:28:52;6.85;;;1.63;;
46334;SDS011;32051;48.882;9.210;2024-03-23T15:31:24;1.15;;;1.10;;
46334;SDS011;32051;48.882;9.210;2024-03-23T15:33:50;1.83;;;1.05;;
46334;SDS011;32051;48.882;9.210;2024-03-23T15:36:17;1.05;;;0.63;;
46334;SDS011;32051;48.882;9.210;2024-03-23T15:38:43;1.13;;;0.55;;
46334;SDS011;32051;48.882;9.210;2024-03-23T15:41:10;2.85;;;0.85;;
46334;SDS011;32051;48.882;9.210;2024-03-23T15:43:36;0.60;;;0.60;;
46334;SDS011;32051;48.882;9.210;2024-03-23T15:46:03;2.10;;;0.88;;
46334;SDS011;32051;48.882;9.210;2024-03-23T15:48:31;1.58;;;0.82;;
46334;SDS011;32051;48.882;9.210;2024-03-23T15:50:58;0.90;;;0.80;;